sensor_id;sensor_type;location;lat;lon;timestamp;temperature;humidity
4787;DHT22;62338;48.832;9.422;2022-12-15T00:02:02;-2.90;99.90
4787;DHT22;62338;48.832;9.422;2022-12-15T00:04:22;-2.90;99.90
4787;DHT22;62338;48.832;9.422;2022-12-15T00:06:42;-3.00;99.90
4787;DHT22;62338;48.832;9.422;2022-12-15T00:09:03;-3.00;99.90
4787;DHT22;62338;48.832;9.422;2022-12-15T00:11:31;-3.10;99.90
4787;DHT22;62338;48.832;9.422;2022-12-15T00:13:51;-3.20;99.90
4787;DHT22;62338;48.832;9.422;2022-12-15T00:16:12;-3.10;99.90
4787;DHT22;62338;48.832;9.422;2022-12-15T00:18:33;-3.20;99.90
4787;DHT22;62338;48.832;9.422;2022-12-15T00:20:57;-3.20;99.90
4787;DHT22;62338;48.832;9.422;2022-12-15T00:23:17;-3.10;99.90
4787;DHT22;62338;48.832;9.422;2022-12-15T00:25:38;-3.10;99.90
4787;DHT22;62338;48.832;9.422;2022-12-15T00:27:58;-3.10;99.90
4787;DHT22;62338;48.832;9.422;2022-12-15T00:30:19;-3.20;99.90
4787;DHT22;62338;48.832;9.422;2022-12-15T00:32:39;-3.10;99.90
4787;DHT22;62338;48.832;9.422;2022-12-15T00:34:59;-3.10;99.90
4787;DHT22;62338;48.832;9.422;2022-12-15T00:37:20;-3.10;99.90
4787;DHT22;62338;48.832;9.422;2022-12-15T00:39:40;-3.10;99.90
4787;DHT22;62338;48.832;9.422;2022-12-15T00:41:42;-3.20;99.90
4787;DHT22;62338;48.832;9.422;2022-12-15T00:43:44;-3.20;99.90
4787;DHT22;62338;48.832;9.422;2022-12-15T00:45:46;-3.20;99.90
4787;DHT22;62338;48.832;9.422;2022-12-15T00:48:07;-3.10;99.90
4787;DHT22;62338;48.832;9.422;2022-12-15T00:50:09;-3.10;99.90
4787;DHT22;62338;48.832;9.422;2022-12-15T00:52:29;-3.20;99.90
4787;DHT22;62338;48.832;9.422;2022-12-15T00:54:49;-3.20;99.90
4787;DHT22;62338;48.832;9.422;2022-12-15T00:57:09;-3.20;99.90
4787;DHT22;62338;48.832;9.422;2022-12-15T00:59:29;-3.20;99.90
4787;DHT22;62338;48.832;9.422;2022-12-15T01:01:50;-3.20;99.90
4787;DHT22;62338;48.832;9.422;2022-12-15T01:04:10;-3.20;99.90
4787;DHT22;62338;48.832;9.422;2022-12-15T01:06:31;-3.20;99.90
4787;DHT22;62338;48.832;9.422;2022-12-15T01:08:51;-3.20;99.90
4787;DHT22;62338;48.832;9.422;2022-12-15T01:11:11;-3.20;99.90
4787;DHT22;62338;48.832;9.422;2022-12-15T01:13:32;-3.20;99.90
4787;DHT22;62338;48.832;9.422;2022-12-15T01:15:52;-3.10;99.90
4787;DHT22;62338;48.832;9.422;2022-12-15T01:18:12;-3.20;99.90
4787;DHT22;62338;48.832;9.422;2022-12-15T01:20:32;-3.20;99.90
4787;DHT22;62338;48.832;9.422;2022-12-15T01:22:36;-3.20;99.90
4787;DHT22;62338;48.832;9.422;2022-12-15T01:24:38;-3.20;99.90
4787;DHT22;62338;48.832;9.422;2022-12-15T01:26:40;-3.20;99.90
4787;DHT22;62338;48.832;9.422;2022-12-15T01:28:41;-3.20;99.90
4787;DHT22;62338;48.832;9.422;2022-12-15T01:30:44;-3.20;99.90
4787;DHT22;62338;48.832;9.422;2022-12-15T01:32:45;-3.20;99.90
4787;DHT22;62338;48.832;9.422;2022-12-15T01:34:47;-3.20;99.90
4787;DHT22;62338;48.832;9.422;2022-12-15T01:36:49;-3.20;99.90
4787;DHT22;62338;48.832;9.422;2022-12-15T01:38:51;-3.20;99.90
4787;DHT22;62338;48.832;9.422;2022-12-15T01:40:59;-3.20;99.90
4787;DHT22;62338;48.832;9.422;2022-12-15T01:43:02;-3.20;99.90
4787;DHT22;62338;48.832;9.422;2022-12-15T01:47:24;-3.20;99.90
4787;DHT22;62338;48.832;9.422;2022-12-15T01:49:28;-3.20;99.90
4787;DHT22;62338;48.832;9.422;2022-12-15T01:51:36;-3.20;99.90
4787;DHT22;62338;48.832;9.422;2022-12-15T01:53:44;-3.20;99.90
4787;DHT22;62338;48.832;9.422;2022-12-15T01:55:50;-3.20;99.90
4787;DHT22;62338;48.832;9.422;2022-12-15T01:57:56;-3.10;99.90
4787;DHT22;62338;48.832;9.422;2022-12-15T02:00:04;-3.20;99.90
4787;DHT22;62338;48.832;9.422;2022-12-15T02:02:07;-3.20;99.90
4787;DHT22;62338;48.832;9.422;2022-12-15T02:04:09;-3.20;99.90
4787;DHT22;62338;48.832;9.422;2022-12-15T02:06:12;-3.20;99.90
4787;DHT22;62338;48.832;9.422;2022-12-15T02:08:14;-3.20;99.90
4787;DHT22;62338;48.832;9.422;2022-12-15T02:10:16;-3.20;99.90
4787;DHT22;62338;48.832;9.422;2022-12-15T02:12:33;-3.20;99.90
4787;DHT22;62338;48.832;9.422;2022-12-15T02:14:57;-3.20;99.90
4787;DHT22;62338;48.832;9.422;2022-12-15T02:17:13;-3.20;99.90
4787;DHT22;62338;48.832;9.422;2022-12-15T02:21:40;-3.20;99.90
4787;DHT22;62338;48.832;9.422;2022-12-15T02:31:02;-3.20;99.90
4787;DHT22;62338;48.832;9.422;2022-12-15T02:33:26;-3.20;99.90
4787;DHT22;62338;48.832;9.422;2022-12-15T02:37:43;-3.20;99.90
4787;DHT22;62338;48.832;9.422;2022-12-15T02:39:50;-3.20;99.90
4787;DHT22;62338;48.832;9.422;2022-12-15T02:41:52;-3.30;99.90
4787;DHT22;62338;48.832;9.422;2022-12-15T02:43:54;-3.20;99.90
4787;DHT22;62338;48.832;9.422;2022-12-15T02:50:55;-3.20;99.90
4787;DHT22;62338;48.832;9.422;2022-12-15T02:56:04;-3.10;99.90
4787;DHT22;62338;48.832;9.422;2022-12-15T02:58:39;-3.10;99.90
4787;DHT22;62338;48.832;9.422;2022-12-15T03:00:53;-3.10;99.90
4787;DHT22;62338;48.832;9.422;2022-12-15T03:02:58;-3.10;99.90
4787;DHT22;62338;48.832;9.422;2022-12-15T03:05:00;-3.00;99.90
4787;DHT22;62338;48.832;9.422;2022-12-15T03:07:04;-3.10;99.90
4787;DHT22;62338;48.832;9.422;2022-12-15T03:09:08;-3.10;99.90
4787;DHT22;62338;48.832;9.422;2022-12-15T03:11:10;-3.10;99.90
4787;DHT22;62338;48.832;9.422;2022-12-15T03:13:12;-3.10;99.90
4787;DHT22;62338;48.832;9.422;2022-12-15T03:15:15;-3.10;99.90
4787;DHT22;62338;48.832;9.422;2022-12-15T03:17:17;-3.10;99.90
4787;DHT22;62338;48.832;9.422;2022-12-15T03:19:19;-3.20;99.90
4787;DHT22;62338;48.832;9.422;2022-12-15T03:21:21;-3.10;99.90
4787;DHT22;62338;48.832;9.422;2022-12-15T03:23:23;-3.20;99.90
4787;DHT22;62338;48.832;9.422;2022-12-15T03:25:25;-3.20;99.90
4787;DHT22;62338;48.832;9.422;2022-12-15T03:27:27;-3.20;99.90
4787;DHT22;62338;48.832;9.422;2022-12-15T03:29:28;-3.20;99.90
4787;DHT22;62338;48.832;9.422;2022-12-15T03:31:30;-3.20;99.90
4787;DHT22;62338;48.832;9.422;2022-12-15T03:33:32;-3.20;99.90
4787;DHT22;62338;48.832;9.422;2022-12-15T03:35:35;-3.10;99.90
4787;DHT22;62338;48.832;9.422;2022-12-15T03:37:37;-3.00;99.90
4787;DHT22;62338;48.832;9.422;2022-12-15T03:39:39;-3.00;99.90
4787;DHT22;62338;48.832;9.422;2022-12-15T03:41:41;-3.00;99.90
4787;DHT22;62338;48.832;9.422;2022-12-15T03:43:43;-3.00;99.90
4787;DHT22;62338;48.832;9.422;2022-12-15T03:45:50;-3.00;99.90
4787;DHT22;62338;48.832;9.422;2022-12-15T03:47:53;-3.10;99.90
4787;DHT22;62338;48.832;9.422;2022-12-15T03:49:55;-3.10;99.90
4787;DHT22;62338;48.832;9.422;2022-12-15T03:51:56;-3.10;99.90
4787;DHT22;62338;48.832;9.422;2022-12-15T03:53:58;-3.10;99.90
4787;DHT22;62338;48.832;9.422;2022-12-15T03:56:00;-3.10;99.90
4787;DHT22;62338;48.832;9.422;2022-12-15T03:58:02;-3.10;99.90
4787;DHT22;62338;48.832;9.422;2022-12-15T04:00:05;-3.20;99.90
4787;DHT22;62338;48.832;9.422;2022-12-15T04:02:09;-3.30;99.90
4787;DHT22;62338;48.832;9.422;2022-12-15T04:04:12;-3.20;99.90
4787;DHT22;62338;48.832;9.422;2022-12-15T04:06:14;-3.20;99.90
4787;DHT22;62338;48.832;9.422;2022-12-15T04:08:16;-3.10;99.90
4787;DHT22;62338;48.832;9.422;2022-12-15T04:10:18;-3.20;99.90
4787;DHT22;62338;48.832;9.422;2022-12-15T04:12:20;-3.20;99.90
4787;DHT22;62338;48.832;9.422;2022-12-15T04:14:21;-3.10;99.90
4787;DHT22;62338;48.832;9.422;2022-12-15T04:16:23;-3.10;99.90
4787;DHT22;62338;48.832;9.422;2022-12-15T04:18:25;-3.10;99.90
4787;DHT22;62338;48.832;9.422;2022-12-15T04:20:27;-3.20;99.90
4787;DHT22;62338;48.832;9.422;2022-12-15T04:22:28;-3.20;99.90
4787;DHT22;62338;48.832;9.422;2022-12-15T04:24:30;-3.10;99.90
4787;DHT22;62338;48.832;9.422;2022-12-15T04:26:50;-3.10;99.90
4787;DHT22;62338;48.832;9.422;2022-12-15T04:29:10;-3.10;99.90
4787;DHT22;62338;48.832;9.422;2022-12-15T04:31:32;-3.10;99.90
4787;DHT22;62338;48.832;9.422;2022-12-15T04:33:56;-3.10;99.90
4787;DHT22;62338;48.832;9.422;2022-12-15T04:36:17;-3.10;99.90
4787;DHT22;62338;48.832;9.422;2022-12-15T04:38:37;-3.10;99.90
4787;DHT22;62338;48.832;9.422;2022-12-15T04:40:59;-3.10;99.90
4787;DHT22;62338;48.832;9.422;2022-12-15T04:43:19;-3.10;99.90
4787;DHT22;62338;48.832;9.422;2022-12-15T04:45:40;-3.10;99.90
4787;DHT22;62338;48.832;9.422;2022-12-15T04:48:00;-3.10;99.90
4787;DHT22;62338;48.832;9.422;2022-12-15T04:50:20;-3.00;99.90
4787;DHT22;62338;48.832;9.422;2022-12-15T04:52:40;-3.00;99.90
4787;DHT22;62338;48.832;9.422;2022-12-15T04:55:01;-3.00;99.90
4787;DHT22;62338;48.832;9.422;2022-12-15T04:57:21;-3.00;99.90
4787;DHT22;62338;48.832;9.422;2022-12-15T04:59:41;-3.00;99.90
4787;DHT22;62338;48.832;9.422;2022-12-15T05:02:02;-3.00;99.90
4787;DHT22;62338;48.832;9.422;2022-12-15T05:04:22;-3.00;99.90
4787;DHT22;62338;48.832;9.422;2022-12-15T05:06:43;-2.90;99.90
4787;DHT22;62338;48.832;9.422;2022-12-15T05:09:04;-2.90;99.90
4787;DHT22;62338;48.832;9.422;2022-12-15T05:11:24;-2.90;99.90
4787;DHT22;62338;48.832;9.422;2022-12-15T05:13:44;-3.00;99.90
4787;DHT22;62338;48.832;9.422;2022-12-15T05:16:05;-3.00;99.90
4787;DHT22;62338;48.832;9.422;2022-12-15T05:18:25;-3.00;99.90
4787;DHT22;62338;48.832;9.422;2022-12-15T05:20:46;-3.00;99.90
4787;DHT22;62338;48.832;9.422;2022-12-15T05:23:06;-3.00;99.90
4787;DHT22;62338;48.832;9.422;2022-12-15T05:25:26;-3.10;99.90
4787;DHT22;62338;48.832;9.422;2022-12-15T05:27:46;-3.00;99.90
4787;DHT22;62338;48.832;9.422;2022-12-15T05:30:07;-3.00;99.90
4787;DHT22;62338;48.832;9.422;2022-12-15T05:32:31;-3.10;99.90
4787;DHT22;62338;48.832;9.422;2022-12-15T05:34:34;-3.10;99.90
4787;DHT22;62338;48.832;9.422;2022-12-15T05:36:36;-3.10;99.90
4787;DHT22;62338;48.832;9.422;2022-12-15T05:38:38;-3.20;99.90
4787;DHT22;62338;48.832;9.422;2022-12-15T05:40:40;-3.10;99.90
4787;DHT22;62338;48.832;9.422;2022-12-15T05:42:41;-3.10;99.90
4787;DHT22;62338;48.832;9.422;2022-12-15T05:44:50;-3.10;99.90
4787;DHT22;62338;48.832;9.422;2022-12-15T05:46:52;-3.10;99.90
4787;DHT22;62338;48.832;9.422;2022-12-15T05:48:54;-3.10;99.90
4787;DHT22;62338;48.832;9.422;2022-12-15T05:50:56;-3.10;99.90
4787;DHT22;62338;48.832;9.422;2022-12-15T05:52:58;-3.10;99.90
4787;DHT22;62338;48.832;9.422;2022-12-15T05:55:00;-3.10;99.90
4787;DHT22;62338;48.832;9.422;2022-12-15T05:57:01;-3.10;99.90
4787;DHT22;62338;48.832;9.422;2022-12-15T05:59:03;-3.10;99.90
4787;DHT22;62338;48.832;9.422;2022-12-15T06:01:08;-3.00;99.90
4787;DHT22;62338;48.832;9.422;2022-12-15T06:03:10;-3.10;99.90
4787;DHT22;62338;48.832;9.422;2022-12-15T06:05:11;-3.10;99.90
4787;DHT22;62338;48.832;9.422;2022-12-15T06:07:13;-3.10;99.90
4787;DHT22;62338;48.832;9.422;2022-12-15T06:09:15;-3.20;99.90
4787;DHT22;62338;48.832;9.422;2022-12-15T06:11:18;-3.20;99.90
4787;DHT22;62338;48.832;9.422;2022-12-15T06:13:21;-3.10;99.90
4787;DHT22;62338;48.832;9.422;2022-12-15T06:15:23;-3.10;99.90
4787;DHT22;62338;48.832;9.422;2022-12-15T06:17:25;-3.00;99.90
4787;DHT22;62338;48.832;9.422;2022-12-15T06:19:27;-3.00;99.90
4787;DHT22;62338;48.832;9.422;2022-12-15T06:21:33;-3.00;99.90
4787;DHT22;62338;48.832;9.422;2022-12-15T06:23:39;-3.10;99.90
4787;DHT22;62338;48.832;9.422;2022-12-15T06:25:40;-3.10;99.90
4787;DHT22;62338;48.832;9.422;2022-12-15T06:27:42;-3.00;99.90
4787;DHT22;62338;48.832;9.422;2022-12-15T06:29:44;-3.00;99.90
4787;DHT22;62338;48.832;9.422;2022-12-15T06:31:46;-3.00;99.90
4787;DHT22;62338;48.832;9.422;2022-12-15T06:33:48;-3.10;99.90
4787;DHT22;62338;48.832;9.422;2022-12-15T06:35:54;-3.10;99.90
4787;DHT22;62338;48.832;9.422;2022-12-15T06:37:56;-3.10;99.90
4787;DHT22;62338;48.832;9.422;2022-12-15T06:39:58;-3.10;99.90
4787;DHT22;62338;48.832;9.422;2022-12-15T06:42:00;-3.10;99.90
4787;DHT22;62338;48.832;9.422;2022-12-15T06:44:02;-3.10;99.90
4787;DHT22;62338;48.832;9.422;2022-12-15T06:46:04;-3.10;99.90
4787;DHT22;62338;48.832;9.422;2022-12-15T06:48:06;-3.10;99.90
4787;DHT22;62338;48.832;9.422;2022-12-15T06:50:08;-3.10;99.90
4787;DHT22;62338;48.832;9.422;2022-12-15T06:52:10;-3.10;99.90
4787;DHT22;62338;48.832;9.422;2022-12-15T06:54:11;-3.10;99.90
4787;DHT22;62338;48.832;9.422;2022-12-15T06:56:22;-3.10;99.90
4787;DHT22;62338;48.832;9.422;2022-12-15T06:58:33;-3.10;99.90
4787;DHT22;62338;48.832;9.422;2022-12-15T07:00:35;-3.10;99.90
4787;DHT22;62338;48.832;9.422;2022-12-15T07:02:37;-3.10;99.90
4787;DHT22;62338;48.832;9.422;2022-12-15T07:04:40;-3.20;99.90
4787;DHT22;62338;48.832;9.422;2022-12-15T07:06:41;-3.10;99.90
4787;DHT22;62338;48.832;9.422;2022-12-15T07:08:48;-3.10;99.90
4787;DHT22;62338;48.832;9.422;2022-12-15T07:10:52;-3.10;99.90
4787;DHT22;62338;48.832;9.422;2022-12-15T07:12:57;-3.10;99.90
4787;DHT22;62338;48.832;9.422;2022-12-15T07:14:59;-3.10;99.90
4787;DHT22;62338;48.832;9.422;2022-12-15T07:17:01;-3.10;99.90
4787;DHT22;62338;48.832;9.422;2022-12-15T07:19:03;-3.10;99.90
4787;DHT22;62338;48.832;9.422;2022-12-15T07:21:07;-3.10;99.90
4787;DHT22;62338;48.832;9.422;2022-12-15T07:23:09;-3.10;99.90
4787;DHT22;62338;48.832;9.422;2022-12-15T07:25:11;-3.10;99.90
4787;DHT22;62338;48.832;9.422;2022-12-15T07:27:13;-3.10;99.90
4787;DHT22;62338;48.832;9.422;2022-12-15T07:29:15;-3.10;99.90
4787;DHT22;62338;48.832;9.422;2022-12-15T07:31:23;-3.10;99.90
4787;DHT22;62338;48.832;9.422;2022-12-15T07:33:25;-3.00;99.90
4787;DHT22;62338;48.832;9.422;2022-12-15T07:35:28;-3.00;99.90
4787;DHT22;62338;48.832;9.422;2022-12-15T07:37:30;-3.00;99.90
4787;DHT22;62338;48.832;9.422;2022-12-15T07:39:32;-3.00;99.90
4787;DHT22;62338;48.832;9.422;2022-12-15T07:41:34;-2.90;99.90
4787;DHT22;62338;48.832;9.422;2022-12-15T07:43:36;-2.90;99.90
4787;DHT22;62338;48.832;9.422;2022-12-15T07:45:38;-2.90;99.90
4787;DHT22;62338;48.832;9.422;2022-12-15T07:47:40;-2.90;99.90
4787;DHT22;62338;48.832;9.422;2022-12-15T07:49:42;-2.90;99.90
4787;DHT22;62338;48.832;9.422;2022-12-15T07:51:44;-2.90;99.90
4787;DHT22;62338;48.832;9.422;2022-12-15T07:53:47;-2.80;99.90
4787;DHT22;62338;48.832;9.422;2022-12-15T07:55:59;-2.80;99.90
4787;DHT22;62338;48.832;9.422;2022-12-15T07:58:09;-2.70;99.90
4787;DHT22;62338;48.832;9.422;2022-12-15T08:00:12;-2.60;99.90
4787;DHT22;62338;48.832;9.422;2022-12-15T08:02:15;-2.50;99.90
4787;DHT22;62338;48.832;9.422;2022-12-15T08:04:18;-2.50;99.90
4787;DHT22;62338;48.832;9.422;2022-12-15T08:06:20;-2.40;99.90
4787;DHT22;62338;48.832;9.422;2022-12-15T08:08:21;-2.40;99.90
4787;DHT22;62338;48.832;9.422;2022-12-15T08:10:23;-2.30;99.90
4787;DHT22;62338;48.832;9.422;2022-12-15T08:12:28;-2.30;99.90
4787;DHT22;62338;48.832;9.422;2022-12-15T08:14:30;-2.20;99.90
4787;DHT22;62338;48.832;9.422;2022-12-15T08:16:32;-2.20;99.90
4787;DHT22;62338;48.832;9.422;2022-12-15T08:18:37;-2.20;99.90
4787;DHT22;62338;48.832;9.422;2022-12-15T08:20:40;-2.10;99.90
4787;DHT22;62338;48.832;9.422;2022-12-15T08:22:42;-2.00;99.90
4787;DHT22;62338;48.832;9.422;2022-12-15T08:24:44;-2.00;99.90
4787;DHT22;62338;48.832;9.422;2022-12-15T08:26:45;-2.00;99.90
4787;DHT22;62338;48.832;9.422;2022-12-15T08:28:51;-2.00;99.90
4787;DHT22;62338;48.832;9.422;2022-12-15T08:30:53;-2.00;99.90
4787;DHT22;62338;48.832;9.422;2022-12-15T08:32:54;-2.00;99.90
4787;DHT22;62338;48.832;9.422;2022-12-15T08:34:56;-2.00;99.90
4787;DHT22;62338;48.832;9.422;2022-12-15T08:36:58;-2.00;99.90
4787;DHT22;62338;48.832;9.422;2022-12-15T08:39:00;-2.00;99.90
4787;DHT22;62338;48.832;9.422;2022-12-15T08:41:11;-2.00;99.90
4787;DHT22;62338;48.832;9.422;2022-12-15T08:43:13;-2.00;99.90
4787;DHT22;62338;48.832;9.422;2022-12-15T08:45:14;-1.90;99.90
4787;DHT22;62338;48.832;9.422;2022-12-15T08:47:16;-1.90;99.90
4787;DHT22;62338;48.832;9.422;2022-12-15T08:49:18;-1.80;99.90
4787;DHT22;62338;48.832;9.422;2022-12-15T08:51:24;-1.70;99.90
4787;DHT22;62338;48.832;9.422;2022-12-15T08:53:26;-1.70;99.90
4787;DHT22;62338;48.832;9.422;2022-12-15T08:55:33;-1.50;99.90
4787;DHT22;62338;48.832;9.422;2022-12-15T08:57:35;-1.40;99.90
4787;DHT22;62338;48.832;9.422;2022-12-15T08:59:36;-1.40;99.90
4787;DHT22;62338;48.832;9.422;2022-12-15T09:01:38;-1.30;83.80
4787;DHT22;62338;48.832;9.422;2022-12-15T09:03:41;-1.40;76.60
4787;DHT22;62338;48.832;9.422;2022-12-15T09:05:43;-1.40;93.50
4787;DHT22;62338;48.832;9.422;2022-12-15T09:07:45;-1.50;93.80
4787;DHT22;62338;48.832;9.422;2022-12-15T09:09:48;-1.40;99.90
4787;DHT22;62338;48.832;9.422;2022-12-15T09:11:50;-1.40;87.70
4787;DHT22;62338;48.832;9.422;2022-12-15T09:13:52;-1.30;92.90
4787;DHT22;62338;48.832;9.422;2022-12-15T09:16:06;-1.20;93.40
4787;DHT22;62338;48.832;9.422;2022-12-15T09:18:11;-1.10;73.80
4787;DHT22;62338;48.832;9.422;2022-12-15T09:20:13;-1.10;72.20
4787;DHT22;62338;48.832;9.422;2022-12-15T09:22:18;-1.10;60.90
4787;DHT22;62338;48.832;9.422;2022-12-15T09:24:20;-1.00;76.00
4787;DHT22;62338;48.832;9.422;2022-12-15T09:26:34;-1.00;38.00
4787;DHT22;62338;48.832;9.422;2022-12-15T09:28:37;-1.00;25.50
4787;DHT22;62338;48.832;9.422;2022-12-15T09:30:39;-0.90;37.70
4787;DHT22;62338;48.832;9.422;2022-12-15T09:32:41;-0.90;22.50
4787;DHT22;62338;48.832;9.422;2022-12-15T09:34:43;-0.80;47.50
4787;DHT22;62338;48.832;9.422;2022-12-15T09:36:45;-0.60;40.50
4787;DHT22;62338;48.832;9.422;2022-12-15T09:38:47;-0.40;16.10
4787;DHT22;62338;48.832;9.422;2022-12-15T09:40:49;-0.20;1.00
4787;DHT22;62338;48.832;9.422;2022-12-15T09:42:53;-0.10;1.00
4787;DHT22;62338;48.832;9.422;2022-12-15T09:45:21;-0.10;1.00
4787;DHT22;62338;48.832;9.422;2022-12-15T09:47:53;0.00;1.00
4787;DHT22;62338;48.832;9.422;2022-12-15T09:49:58;0.00;1.00
4787;DHT22;62338;48.832;9.422;2022-12-15T09:52:09;0.00;1.00
4787;DHT22;62338;48.832;9.422;2022-12-15T09:54:13;-0.10;1.00
4787;DHT22;62338;48.832;9.422;2022-12-15T09:56:20;-0.10;1.00
4787;DHT22;62338;48.832;9.422;2022-12-15T09:58:59;-0.10;1.00
4787;DHT22;62338;48.832;9.422;2022-12-15T10:03:36;0.00;1.00
4787;DHT22;62338;48.832;9.422;2022-12-15T10:08:23;0.00;1.00
4787;DHT22;62338;48.832;9.422;2022-12-15T10:10:33;0.00;1.00
4787;DHT22;62338;48.832;9.422;2022-12-15T10:12:36;-0.20;1.00
4787;DHT22;62338;48.832;9.422;2022-12-15T10:15:19;-0.30;1.00
4787;DHT22;62338;48.832;9.422;2022-12-15T10:17:23;-0.30;1.00
4787;DHT22;62338;48.832;9.422;2022-12-15T10:21:50;-0.30;1.00
4787;DHT22;62338;48.832;9.422;2022-12-15T10:23:55;-0.30;1.00
4787;DHT22;62338;48.832;9.422;2022-12-15T10:26:17;-0.20;1.00
4787;DHT22;62338;48.832;9.422;2022-12-15T10:29:01;-0.30;1.00
4787;DHT22;62338;48.832;9.422;2022-12-15T10:31:17;-0.30;1.00
4787;DHT22;62338;48.832;9.422;2022-12-15T10:33:22;-0.40;1.00
4787;DHT22;62338;48.832;9.422;2022-12-15T10:35:33;-0.50;1.00
4787;DHT22;62338;48.832;9.422;2022-12-15T10:37:35;-0.60;2.70
4787;DHT22;62338;48.832;9.422;2022-12-15T10:39:39;-0.50;23.40
4787;DHT22;62338;48.832;9.422;2022-12-15T10:41:41;-0.40;7.30
4787;DHT22;62338;48.832;9.422;2022-12-15T10:43:45;-0.40;11.40
4787;DHT22;62338;48.832;9.422;2022-12-15T10:46:09;-0.30;8.40
4787;DHT22;62338;48.832;9.422;2022-12-15T10:48:18;-0.10;2.50
4787;DHT22;62338;48.832;9.422;2022-12-15T10:50:22;0.00;1.00
4787;DHT22;62338;48.832;9.422;2022-12-15T10:52:34;0.00;1.00
4787;DHT22;62338;48.832;9.422;2022-12-15T10:54:44;0.00;1.00
4787;DHT22;62338;48.832;9.422;2022-12-15T10:56:51;0.10;1.00
4787;DHT22;62338;48.832;9.422;2022-12-15T10:59:05;-0.10;1.00
4787;DHT22;62338;48.832;9.422;2022-12-15T11:01:26;-0.10;1.00
4787;DHT22;62338;48.832;9.422;2022-12-15T11:03:29;-0.10;19.80
4787;DHT22;62338;48.832;9.422;2022-12-15T11:05:37;-0.10;17.60
4787;DHT22;62338;48.832;9.422;2022-12-15T11:08:11;-0.10;17.50
4787;DHT22;62338;48.832;9.422;2022-12-15T11:10:29;-0.10;1.00
4787;DHT22;62338;48.832;9.422;2022-12-15T11:13:09;-0.10;1.00
4787;DHT22;62338;48.832;9.422;2022-12-15T11:17:36;0.10;1.00
4787;DHT22;62338;48.832;9.422;2022-12-15T11:19:54;0.00;1.00
4787;DHT22;62338;48.832;9.422;2022-12-15T11:22:19;0.10;1.00
4787;DHT22;62338;48.832;9.422;2022-12-15T11:24:28;0.00;2.30
4787;DHT22;62338;48.832;9.422;2022-12-15T11:29:03;0.00;1.00
4787;DHT22;62338;48.832;9.422;2022-12-15T11:31:31;-0.10;1.00
4787;DHT22;62338;48.832;9.422;2022-12-15T11:33:34;0.00;1.00
4787;DHT22;62338;48.832;9.422;2022-12-15T11:37:55;0.10;1.00
4787;DHT22;62338;48.832;9.422;2022-12-15T11:40:39;0.20;1.00
4787;DHT22;62338;48.832;9.422;2022-12-15T11:45:07;0.20;1.00
4787;DHT22;62338;48.832;9.422;2022-12-15T11:47:46;0.20;1.00
4787;DHT22;62338;48.832;9.422;2022-12-15T11:52:11;0.30;1.00
4787;DHT22;62338;48.832;9.422;2022-12-15T11:56:31;0.30;1.00
4787;DHT22;62338;48.832;9.422;2022-12-15T12:00:43;0.50;1.00
4787;DHT22;62338;48.832;9.422;2022-12-15T12:07:41;0.60;1.00
4787;DHT22;62338;48.832;9.422;2022-12-15T12:10:11;0.50;1.00
4787;DHT22;62338;48.832;9.422;2022-12-15T12:12:42;0.40;1.00
4787;DHT22;62338;48.832;9.422;2022-12-15T12:19:26;0.40;1.00
4787;DHT22;62338;48.832;9.422;2022-12-15T12:21:44;0.40;1.00
4787;DHT22;62338;48.832;9.422;2022-12-15T12:24:04;0.30;1.00
4787;DHT22;62338;48.832;9.422;2022-12-15T12:28:14;0.40;1.00
4787;DHT22;62338;48.832;9.422;2022-12-15T12:30:20;0.40;1.00
4787;DHT22;62338;48.832;9.422;2022-12-15T12:32:37;0.50;1.00
4787;DHT22;62338;48.832;9.422;2022-12-15T12:35:12;0.60;1.00
4787;DHT22;62338;48.832;9.422;2022-12-15T12:37:57;0.70;1.00
4787;DHT22;62338;48.832;9.422;2022-12-15T12:40:23;0.70;1.00
4787;DHT22;62338;48.832;9.422;2022-12-15T12:42:40;0.70;1.00
4787;DHT22;62338;48.832;9.422;2022-12-15T12:44:43;0.70;1.00
4787;DHT22;62338;48.832;9.422;2022-12-15T12:46:48;0.60;1.00
4787;DHT22;62338;48.832;9.422;2022-12-15T12:48:57;0.70;1.00
4787;DHT22;62338;48.832;9.422;2022-12-15T12:53:26;0.80;1.00
4787;DHT22;62338;48.832;9.422;2022-12-15T12:57:37;1.20;1.00
4787;DHT22;62338;48.832;9.422;2022-12-15T12:59:42;1.20;1.00
4787;DHT22;62338;48.832;9.422;2022-12-15T13:01:49;1.30;1.00
4787;DHT22;62338;48.832;9.422;2022-12-15T13:04:09;1.50;1.00
4787;DHT22;62338;48.832;9.422;2022-12-15T13:08:52;1.70;1.00
4787;DHT22;62338;48.832;9.422;2022-12-15T13:13:56;1.50;1.00
4787;DHT22;62338;48.832;9.422;2022-12-15T13:16:08;1.40;1.00
4787;DHT22;62338;48.832;9.422;2022-12-15T13:18:20;1.30;1.00
4787;DHT22;62338;48.832;9.422;2022-12-15T13:20:32;1.10;1.00
4787;DHT22;62338;48.832;9.422;2022-12-15T13:22:37;0.90;1.00
4787;DHT22;62338;48.832;9.422;2022-12-15T13:24:45;0.80;1.00
4787;DHT22;62338;48.832;9.422;2022-12-15T13:26:51;0.60;1.00
4787;DHT22;62338;48.832;9.422;2022-12-15T13:28:55;0.40;1.00
4787;DHT22;62338;48.832;9.422;2022-12-15T13:33:23;0.10;8.20
4787;DHT22;62338;48.832;9.422;2022-12-15T13:35:29;0.10;27.60
4787;DHT22;62338;48.832;9.422;2022-12-15T13:37:45;0.00;24.80
4787;DHT22;62338;48.832;9.422;2022-12-15T13:39:53;-0.10;45.30
4787;DHT22;62338;48.832;9.422;2022-12-15T13:44:46;-0.10;77.10
4787;DHT22;62338;48.832;9.422;2022-12-15T13:46:53;-0.20;62.90
4787;DHT22;62338;48.832;9.422;2022-12-15T13:49:25;-0.20;83.60
4787;DHT22;62338;48.832;9.422;2022-12-15T13:51:36;-0.20;99.90
4787;DHT22;62338;48.832;9.422;2022-12-15T13:53:46;-0.30;99.90
4787;DHT22;62338;48.832;9.422;2022-12-15T13:58:16;-0.20;99.90
4787;DHT22;62338;48.832;9.422;2022-12-15T14:00:18;-0.20;99.90
4787;DHT22;62338;48.832;9.422;2022-12-15T14:04:29;-0.20;99.90
4787;DHT22;62338;48.832;9.422;2022-12-15T14:06:37;-0.20;99.90
4787;DHT22;62338;48.832;9.422;2022-12-15T14:08:39;-0.20;99.90
4787;DHT22;62338;48.832;9.422;2022-12-15T14:10:50;-0.20;99.90
4787;DHT22;62338;48.832;9.422;2022-12-15T14:12:55;-0.20;99.90
4787;DHT22;62338;48.832;9.422;2022-12-15T14:14:59;-0.20;99.90
4787;DHT22;62338;48.832;9.422;2022-12-15T14:17:06;-0.20;99.90
4787;DHT22;62338;48.832;9.422;2022-12-15T14:19:16;-0.20;99.90
4787;DHT22;62338;48.832;9.422;2022-12-15T14:21:20;-0.30;99.90
4787;DHT22;62338;48.832;9.422;2022-12-15T14:23:28;-0.30;99.90
4787;DHT22;62338;48.832;9.422;2022-12-15T14:25:31;-0.20;99.90
4787;DHT22;62338;48.832;9.422;2022-12-15T14:27:33;-0.20;99.90
4787;DHT22;62338;48.832;9.422;2022-12-15T14:29:35;-0.20;99.90
4787;DHT22;62338;48.832;9.422;2022-12-15T14:31:37;-0.20;99.90
4787;DHT22;62338;48.832;9.422;2022-12-15T14:33:41;-0.20;99.90
4787;DHT22;62338;48.832;9.422;2022-12-15T14:35:48;-0.30;99.90
4787;DHT22;62338;48.832;9.422;2022-12-15T14:37:54;-0.30;99.90
4787;DHT22;62338;48.832;9.422;2022-12-15T14:39:56;-0.30;99.90
4787;DHT22;62338;48.832;9.422;2022-12-15T14:41:58;-0.30;99.90
4787;DHT22;62338;48.832;9.422;2022-12-15T14:44:28;-0.30;99.90
4787;DHT22;62338;48.832;9.422;2022-12-15T14:46:41;-0.30;99.90
4787;DHT22;62338;48.832;9.422;2022-12-15T14:48:52;-0.30;99.90
4787;DHT22;62338;48.832;9.422;2022-12-15T14:50:59;-0.30;99.90
4787;DHT22;62338;48.832;9.422;2022-12-15T14:53:04;-0.40;99.90
4787;DHT22;62338;48.832;9.422;2022-12-15T14:57:45;-0.40;99.90
4787;DHT22;62338;48.832;9.422;2022-12-15T14:59:48;-0.40;99.90
4787;DHT22;62338;48.832;9.422;2022-12-15T15:02:08;-0.50;99.90
4787;DHT22;62338;48.832;9.422;2022-12-15T15:04:25;-0.50;99.90
4787;DHT22;62338;48.832;9.422;2022-12-15T15:06:33;-0.60;99.90
4787;DHT22;62338;48.832;9.422;2022-12-15T15:08:44;-0.60;99.90
4787;DHT22;62338;48.832;9.422;2022-12-15T15:10:46;-0.60;99.90
4787;DHT22;62338;48.832;9.422;2022-12-15T15:12:49;-0.60;99.90